Time;durP1;ratioP1;P1;durP2;ratioP2;P2;SDS_P1;SDS_P2;PMS_P1;PMS_P2;Temp;Humidity;BMP_temperature;BMP_pressure;BME280_temperature;BME280_humidity;BME280_pressure;Samples;Min_cycle;Max_cycle;Signal;HPM_P1;HPM_P2
2023/01/26 00:01:20;;;;;;;114.15;46.15;;;1.90;99.90;;;;;;5033427;28;20083;-71
2023/01/26 00:03:47;;;;;;;115.15;46.88;;;1.90;99.90;;;;;;5033412;28;20033;-71
2023/01/26 00:06:15;;;;;;;112.20;44.67;;;1.90;99.90;;;;;;5031800;28;20037;-71
2023/01/26 00:08:43;;;;;;;111.63;44.80;;;1.90;99.90;;;;;;5031960;28;20030;-71
2023/01/26 00:11:11;;;;;;;110.90;45.97;;;1.90;99.90;;;;;;5032986;28;20522;-71
2023/01/26 00:13:37;;;;;;;105.68;43.75;;;1.90;99.90;;;;;;5031822;28;20474;-72
2023/01/26 00:16:08;;;;;;;108.80;43.78;;;1.90;99.90;;;;;;5033251;28;20040;-71
2023/01/26 00:18:36;;;;;;;107.35;43.22;;;1.80;99.90;;;;;;5032211;28;20025;-71
2023/01/26 00:21:02;;;;;;;103.53;43.03;;;1.80;99.90;;;;;;5033237;28;20044;-71
2023/01/26 00:23:30;;;;;;;110.35;43.85;;;1.90;99.90;;;;;;5032230;28;20037;-71
2023/01/26 00:25:55;;;;;;;107.45;44.72;;;1.90;99.90;;;;;;5033900;28;20046;-71
2023/01/26 00:28:21;;;;;;;105.10;41.78;;;1.90;99.90;;;;;;5035281;28;20033;-71
2023/01/26 00:30:47;;;;;;;109.68;43.47;;;1.90;99.90;;;;;;5034419;28;20034;-71
2023/01/26 00:33:13;;;;;;;116.85;46.10;;;2.00;99.90;;;;;;5035854;28;20026;-71
2023/01/26 00:35:43;;;;;;;109.68;44.03;;;1.90;99.90;;;;;;5032731;28;20033;-71
2023/01/26 00:38:11;;;;;;;110.65;45.75;;;1.90;99.90;;;;;;5032993;28;20064;-71
2023/01/26 00:40:38;;;;;;;110.95;44.35;;;2.00;99.90;;;;;;5032751;28;20025;-71
2023/01/26 00:43:04;;;;;;;105.88;44.38;;;2.00;99.90;;;;;;5032731;28;20513;-71
2023/01/26 00:45:29;;;;;;;106.35;44.47;;;2.00;99.90;;;;;;5031526;28;20072;-71
2023/01/26 00:47:55;;;;;;;102.50;41.72;;;2.00;99.90;;;;;;5031493;28;20086;-71
2023/01/26 00:50:21;;;;;;;106.35;43.42;;;1.90;99.90;;;;;;5031425;28;20098;-71
2023/01/26 00:52:46;;;;;;;103.82;42.55;;;1.90;99.90;;;;;;5031871;28;20541;-71
2023/01/26 00:55:12;;;;;;;104.00;41.97;;;1.90;99.90;;;;;;5032918;28;20033;-71
2023/01/26 00:57:38;;;;;;;101.40;41.25;;;1.90;99.90;;;;;;5015066;28;20513;-71
2023/01/26 01:00:05;;;;;;;104.05;43.72;;;1.90;99.90;;;;;;5031183;28;20552;-71
2023/01/26 01:02:31;;;;;;;108.72;43.85;;;1.90;99.90;;;;;;5032755;28;20423;-71
2023/01/26 01:04:57;;;;;;;103.63;42.80;;;1.90;99.90;;;;;;5033059;28;20056;-71
2023/01/26 01:07:23;;;;;;;102.20;42.25;;;1.90;99.90;;;;;;5032860;28;20366;-71
2023/01/26 01:09:48;;;;;;;104.75;42.22;;;1.80;99.90;;;;;;5032964;28;20033;-71
2023/01/26 01:12:14;;;;;;;106.60;44.95;;;1.80;99.90;;;;;;5031200;28;20038;-71
2023/01/26 01:14:40;;;;;;;104.20;43.90;;;1.80;99.90;;;;;;5032609;28;20525;-72
2023/01/26 01:17:05;;;;;;;103.93;42.85;;;1.80;99.90;;;;;;5032450;28;20033;-71
2023/01/26 01:19:31;;;;;;;103.28;43.35;;;1.70;99.90;;;;;;5018128;28;20049;-71
2023/01/26 01:21:57;;;;;;;107.32;42.83;;;1.70;99.90;;;;;;5035059;28;20033;-69
2023/01/26 01:24:22;;;;;;;98.40;40.40;;;1.70;99.90;;;;;;5036307;28;20021;-71
2023/01/26 01:26:48;;;;;;;108.20;44.15;;;1.70;99.90;;;;;;5036159;28;20437;-71
2023/01/26 01:29:14;;;;;;;111.45;44.90;;;1.70;99.90;;;;;;5034825;28;20402;-71
2023/01/26 01:31:42;;;;;;;113.57;43.33;;;1.70;99.90;;;;;;5036219;28;20025;-71
2023/01/26 01:34:07;;;;;;;102.28;42.08;;;1.60;99.90;;;;;;5034596;28;20109;-71
2023/01/26 01:36:33;;;;;;;99.78;42.20;;;1.60;99.90;;;;;;5034720;28;20112;-71
2023/01/26 01:38:58;;;;;;;109.38;42.97;;;1.70;99.90;;;;;;5035674;28;20034;-71
2023/01/26 01:41:24;;;;;;;100.97;40.65;;;1.80;99.90;;;;;;5035965;28;20029;-71
2023/01/26 01:43:50;;;;;;;101.93;41.22;;;1.80;99.90;;;;;;5034555;28;20029;-71
2023/01/26 01:46:35;;;;;;;92.10;38.90;;;1.90;99.90;;;;;;5034231;28;20037;-71
2023/01/26 01:49:06;;;;;;;95.40;37.45;;;1.80;99.90;;;;;;5018964;28;20060;-71
2023/01/26 01:51:38;;;;;;;97.82;39.92;;;1.80;99.90;;;;;;5035797;28;20527;-71
2023/01/26 01:54:09;;;;;;;89.10;38.20;;;1.90;99.90;;;;;;5034818;28;20049;-71
2023/01/26 01:56:38;;;;;;;92.32;37.90;;;1.90;99.90;;;;;;5034636;28;20116;-71
2023/01/26 01:59:07;;;;;;;92.35;39.30;;;1.90;99.90;;;;;;5034421;28;20474;-71
2023/01/26 02:01:33;;;;;;;92.32;38.03;;;1.90;99.90;;;;;;5035243;28;20033;-71
2023/01/26 02:04:02;;;;;;;87.20;37.47;;;1.90;99.90;;;;;;5034258;28;20087;-71
2023/01/26 02:06:47;;;;;;;88.00;36.45;;;1.80;99.90;;;;;;5034181;28;20116;-71
2023/01/26 02:10:17;;;;;;;82.97;36.03;;;1.80;99.90;;;;;;5034108;28;20117;-71
2023/01/26 02:12:03;;;;;;;85.20;34.97;;;1.80;99.90;;;;;;5035357;28;20037;-71
2023/01/26 02:14:30;;;;;;;85.78;35.17;;;1.80;99.90;;;;;;5035730;28;20025;-71
2023/01/26 02:16:56;;;;;;;79.93;34.35;;;1.80;99.90;;;;;;5035379;28;20075;-71
2023/01/26 02:19:45;;;;;;;77.35;33.58;;;1.80;99.90;;;;;;5037245;28;20034;-69
2023/01/26 02:22:23;;;;;;;75.40;32.05;;;1.80;99.90;;;;;;5036600;28;20025;-69
2023/01/26 02:24:51;;;;;;;77.47;32.72;;;1.80;99.90;;;;;;5036305;28;20104;-69
2023/01/26 02:27:17;;;;;;;80.97;34.05;;;1.70;99.90;;;;;;5034701;28;20060;-69
2023/01/26 02:29:42;;;;;;;83.18;33.20;;;1.70;99.90;;;;;;5033701;28;20495;-69
2023/01/26 02:32:08;;;;;;;78.45;33.00;;;1.60;99.90;;;;;;5033943;28;20025;-69
2023/01/26 02:34:34;;;;;;;71.35;30.52;;;1.60;99.90;;;;;;5034686;28;20053;-69
2023/01/26 02:37:00;;;;;;;76.50;31.55;;;1.70;99.90;;;;;;5035002;28;20041;-69
2023/01/26 02:39:44;;;;;;;75.43;31.02;;;1.70;99.90;;;;;;5034066;28;20110;-69
2023/01/26 02:44:54;;;;;;;82.75;33.05;;;1.80;99.90;;;;;;5034744;28;20032;-69
2023/01/26 02:47:20;;;;;;;72.60;31.90;;;1.90;99.90;;;;;;5033433;28;20037;-69
2023/01/26 02:49:45;;;;;;;74.93;31.95;;;1.80;99.90;;;;;;5017037;28;20033;-69
2023/01/26 02:52:12;;;;;;;76.30;31.25;;;1.90;99.90;;;;;;5033394;28;20071;-69
2023/01/26 02:57:39;;;;;;;77.18;31.77;;;1.80;99.90;;;;;;5012078;28;20144;-69
2023/01/26 03:00:10;;;;;;;74.63;31.50;;;1.90;99.90;;;;;;5029640;28;20087;-69
2023/01/26 03:02:36;;;;;;;74.10;30.83;;;1.90;99.90;;;;;;5032642;28;20033;-69
2023/01/26 03:05:03;;;;;;;75.82;31.25;;;1.90;99.90;;;;;;5034451;28;20040;-69
2023/01/26 03:07:29;;;;;;;76.57;32.55;;;1.90;99.90;;;;;;5034236;28;20476;-69
2023/01/26 03:09:55;;;;;;;69.18;29.63;;;1.90;99.90;;;;;;5034098;28;20441;-69
2023/01/26 03:12:20;;;;;;;72.80;30.33;;;1.90;99.90;;;;;;5033971;28;20033;-69
2023/01/26 03:15:33;;;;;;;69.88;30.08;;;2.00;99.90;;;;;;5033805;28;20025;-69
2023/01/26 03:17:31;;;;;;;70.18;30.45;;;2.00;99.90;;;;;;5033651;28;20121;-68
2023/01/26 03:28:12;;;;;;;68.70;28.67;;;2.10;99.90;;;;;;5033746;28;20152;-69
2023/01/26 03:30:38;;;;;;;65.07;29.05;;;2.00;99.90;;;;;;5032610;28;20477;-69
2023/01/26 03:33:04;;;;;;;59.80;26.70;;;2.00;99.90;;;;;;5033624;28;20026;-69
2023/01/26 03:35:31;;;;;;;60.25;27.80;;;2.10;99.90;;;;;;5033874;28;20037;-69
2023/01/26 03:37:57;;;;;;;61.85;26.90;;;2.10;99.90;;;;;;5032504;28;20034;-69
2023/01/26 03:56:50;;;;;;;57.15;25.48;;;2.10;99.90;;;;;;5033604;28;20044;-69
2023/01/26 03:59:16;;;;;;;53.28;25.23;;;2.10;99.90;;;;;;5033083;28;20057;-69
2023/01/26 04:09:57;;;;;;;47.75;23.15;;;2.20;99.90;;;;;;5032938;28;20052;-69
2023/01/26 04:12:22;;;;;;;49.75;22.77;;;2.20;99.90;;;;;;5032305;28;20030;-69
2023/01/26 04:23:00;;;;;;;49.95;23.38;;;2.10;99.90;;;;;;5032247;28;20124;-72
2023/01/26 04:25:26;;;;;;;48.92;22.55;;;2.10;99.90;;;;;;5031678;28;20097;-71
2023/01/26 04:27:52;;;;;;;50.38;21.92;;;2.20;99.90;;;;;;5015813;28;20474;-71
2023/01/26 04:30:18;;;;;;;44.80;21.05;;;2.20;99.90;;;;;;5031926;28;20033;-72
2023/01/26 04:32:45;;;;;;;48.40;23.08;;;2.30;99.90;;;;;;5032920;28;20037;-71
2023/01/26 04:35:11;;;;;;;48.45;22.75;;;2.30;99.90;;;;;;5032859;28;20036;-72
2023/01/26 04:37:37;;;;;;;48.65;22.63;;;2.30;99.90;;;;;;5031731;28;20061;-71
2023/01/26 04:40:05;;;;;;;47.22;23.05;;;2.20;99.90;;;;;;5032969;28;20037;-72
2023/01/26 04:42:31;;;;;;;49.15;22.85;;;2.20;99.90;;;;;;5033537;28;20025;-72
2023/01/26 04:44:57;;;;;;;48.15;22.67;;;2.20;99.90;;;;;;5033409;28;20379;-72
2023/01/26 04:47:22;;;;;;;47.88;22.15;;;2.30;99.90;;;;;;5031395;28;20095;-72
2023/01/26 04:49:48;;;;;;;47.10;21.63;;;2.30;99.90;;;;;;5031683;28;20072;-72
2023/01/26 04:52:14;;;;;;;49.38;22.98;;;2.30;99.90;;;;;;5033048;28;20025;-72
2023/01/26 04:54:40;;;;;;;47.65;22.35;;;2.30;99.90;;;;;;5035249;28;20044;-72
2023/01/26 04:57:06;;;;;;;51.30;22.88;;;2.40;99.90;;;;;;5036818;28;20091;-72
2023/01/26 04:59:32;;;;;;;46.63;22.27;;;2.40;99.90;;;;;;5035511;28;20141;-72
2023/01/26 05:01:58;;;;;;;46.83;22.70;;;2.50;99.90;;;;;;5035704;28;20116;-74
2023/01/26 05:04:23;;;;;;;47.30;23.30;;;2.40;99.90;;;;;;5035400;28;20025;-72
2023/01/26 05:06:49;;;;;;;44.65;22.08;;;2.40;99.90;;;;;;5018706;28;20175;-72
2023/01/26 05:09:15;;;;;;;44.40;20.90;;;2.40;99.90;;;;;;5035400;28;20458;-72
2023/01/26 05:11:40;;;;;;;43.03;20.70;;;2.40;99.90;;;;;;5036603;28;20056;-72
2023/01/26 05:14:06;;;;;;;44.50;21.02;;;2.40;99.90;;;;;;5036409;28;20111;-72
2023/01/26 05:16:31;;;;;;;44.65;21.73;;;2.30;99.90;;;;;;5035320;28;20036;-72
2023/01/26 05:18:57;;;;;;;44.85;22.23;;;2.40;99.90;;;;;;5036397;28;20030;-72
2023/01/26 05:21:23;;;;;;;42.75;21.95;;;2.30;99.90;;;;;;5036133;28;20036;-72
2023/01/26 05:23:50;;;;;;;45.55;21.33;;;2.30;99.90;;;;;;5036318;28;20084;-72
2023/01/26 05:26:16;;;;;;;41.33;20.83;;;2.30;99.90;;;;;;5036451;28;20037;-71
2023/01/26 05:28:42;;;;;;;46.55;21.88;;;2.30;99.90;;;;;;5036257;28;20034;-72
2023/01/26 05:31:08;;;;;;;44.78;21.10;;;2.30;99.90;;;;;;5036529;28;20017;-72
2023/01/26 05:33:33;;;;;;;45.05;22.10;;;2.30;99.90;;;;;;5034999;28;20029;-71
2023/01/26 05:36:04;;;;;;;43.90;21.05;;;2.30;99.90;;;;;;5036026;28;20364;-72
2023/01/26 05:38:30;;;;;;;43.78;20.48;;;2.40;99.90;;;;;;5036336;28;20025;-71
2023/01/26 05:40:55;;;;;;;43.78;21.00;;;2.40;99.90;;;;;;5035964;28;20041;-72
2023/01/26 05:43:21;;;;;;;47.28;21.25;;;2.40;99.90;;;;;;5036011;28;20033;-71
2023/01/26 05:45:47;;;;;;;48.67;22.63;;;2.40;99.90;;;;;;5036296;28;20127;-72
2023/01/26 05:48:12;;;;;;;44.08;21.38;;;2.50;99.90;;;;;;5035034;28;20034;-72
2023/01/26 05:50:38;;;;;;;43.15;20.98;;;2.50;99.90;;;;;;5036826;28;20026;-72
2023/01/26 05:53:04;;;;;;;43.42;20.42;;;2.50;99.90;;;;;;5034772;28;20029;-72
2023/01/26 05:55:29;;;;;;;42.90;20.52;;;2.50;99.90;;;;;;5035437;28;20036;-72
2023/01/26 05:57:55;;;;;;;45.58;20.70;;;2.60;99.90;;;;;;5035876;28;20046;-72
2023/01/26 06:00:21;;;;;;;41.42;21.23;;;2.60;99.90;;;;;;5034884;28;20369;-72
2023/01/26 06:02:46;;;;;;;39.97;19.63;;;2.60;99.90;;;;;;5034733;28;20076;-72
2023/01/26 06:05:12;;;;;;;45.38;22.20;;;2.60;99.90;;;;;;5033495;28;20029;-72
2023/01/26 06:07:38;;;;;;;39.28;20.40;;;2.70;99.90;;;;;;5034223;28;20462;-72
2023/01/26 06:10:04;;;;;;;39.17;18.80;;;2.70;99.90;;;;;;5035595;28;20045;-72
2023/01/26 06:12:34;;;;;;;46.75;20.92;;;2.70;99.90;;;;;;5035362;28;20033;-71
2023/01/26 06:15:00;;;;;;;41.72;19.35;;;2.80;99.90;;;;;;5035610;28;20053;-72
2023/01/26 06:17:26;;;;;;;40.15;18.75;;;2.80;99.90;;;;;;5017554;28;20048;-72
2023/01/26 06:19:52;;;;;;;40.45;19.42;;;2.80;99.90;;;;;;5034138;28;20030;-71
2023/01/26 06:22:18;;;;;;;41.72;19.45;;;2.80;99.90;;;;;;5035098;28;20083;-70
2023/01/26 06:24:43;;;;;;;41.08;18.40;;;2.90;99.90;;;;;;5034996;28;20326;-71
2023/01/26 06:27:14;;;;;;;38.45;18.48;;;3.00;99.90;;;;;;5033755;28;20037;-71
2023/01/26 06:29:41;;;;;;;36.50;18.13;;;3.10;99.90;;;;;;5035134;28;20091;-70
2023/01/26 06:32:09;;;;;;;36.13;17.30;;;3.20;99.90;;;;;;5034599;28;20039;-70
2023/01/26 06:34:34;;;;;;;30.45;15.10;;;3.40;99.90;;;;;;5034854;28;20390;-70
2023/01/26 06:37:00;;;;;;;35.88;17.30;;;3.50;99.90;;;;;;5033566;28;20041;-68
2023/01/26 06:39:26;;;;;;;32.50;16.77;;;3.70;99.90;;;;;;5034875;28;20030;-67
2023/01/26 06:41:51;;;;;;;33.10;16.65;;;3.80;99.90;;;;;;5035205;28;20033;-68
2023/01/26 06:44:17;;;;;;;33.25;16.92;;;3.90;99.90;;;;;;5033735;28;20172;-68
2023/01/26 06:46:42;;;;;;;33.30;17.60;;;4.00;99.90;;;;;;5033858;28;20462;-70
2023/01/26 06:49:08;;;;;;;29.17;16.20;;;4.10;99.90;;;;;;5034507;28;20386;-77
2023/01/26 06:51:57;;;;;;;31.58;16.27;;;4.10;99.90;;;;;;5016824;28;20034;-68
2023/01/26 06:54:23;;;;;;;32.88;16.50;;;4.20;99.90;;;;;;5033560;28;20029;-72
2023/01/26 06:56:48;;;;;;;29.67;15.43;;;4.20;99.90;;;;;;5033579;28;20132;-72
2023/01/26 06:59:14;;;;;;;30.55;16.02;;;4.20;99.90;;;;;;5032882;28;20057;-72
2023/01/26 07:01:44;;;;;;;31.40;16.33;;;4.30;99.90;;;;;;5033147;28;20033;-72
2023/01/26 07:04:10;;;;;;;29.50;16.35;;;4.30;99.90;;;;;;5034005;28;20083;-74
2023/01/26 07:06:35;;;;;;;31.92;16.50;;;4.30;99.90;;;;;;5033981;28;20029;-73
2023/01/26 07:09:01;;;;;;;32.00;16.08;;;4.40;99.90;;;;;;5034359;28;20037;-73
2023/01/26 07:11:29;;;;;;;31.95;16.85;;;4.40;99.90;;;;;;5032788;28;20025;-74
2023/01/26 07:13:55;;;;;;;27.52;15.07;;;4.30;99.90;;;;;;5032888;28;20029;-69
2023/01/26 07:16:20;;;;;;;34.70;17.67;;;4.30;99.90;;;;;;5032962;28;20036;-70
2023/01/26 07:18:46;;;;;;;31.27;16.50;;;4.30;99.90;;;;;;5034043;28;20033;-70
2023/01/26 07:21:17;;;;;;;32.83;17.00;;;4.20;99.90;;;;;;5032611;28;20477;-74
2023/01/26 07:23:43;;;;;;;31.70;16.75;;;4.20;99.90;;;;;;5033472;28;20029;-73
2023/01/26 07:26:09;;;;;;;31.00;15.68;;;4.20;99.90;;;;;;5032922;28;20123;-73
2023/01/26 07:28:35;;;;;;;27.17;14.82;;;4.20;99.90;;;;;;5016151;28;20120;-74
2023/01/26 07:31:01;;;;;;;32.00;15.93;;;4.30;99.90;;;;;;5033997;28;20038;-74
2023/01/26 07:33:32;;;;;;;27.20;14.90;;;4.30;99.90;;;;;;5033233;28;20053;-74
2023/01/26 07:35:58;;;;;;;33.30;16.40;;;4.30;99.90;;;;;;5032452;28;20037;-73
2023/01/26 07:38:24;;;;;;;30.02;16.25;;;4.40;99.90;;;;;;5016973;28;20036;-72
2023/01/26 07:40:50;;;;;;;30.98;15.30;;;4.50;99.90;;;;;;5017739;28;20479;-73
2023/01/26 07:43:15;;;;;;;26.10;14.23;;;4.50;99.90;;;;;;5035019;28;20109;-73
2023/01/26 07:45:45;;;;;;;29.75;15.20;;;4.50;99.90;;;;;;5016828;28;20077;-73
2023/01/26 07:48:11;;;;;;;27.77;15.80;;;4.60;99.90;;;;;;5033461;28;20030;-72
2023/01/26 07:50:37;;;;;;;31.70;15.65;;;4.60;99.90;;;;;;5015799;28;20037;-73
2023/01/26 07:53:02;;;;;;;33.67;16.90;;;4.60;99.90;;;;;;5032206;28;20033;-72
2023/01/26 07:55:28;;;;;;;34.05;16.35;;;4.60;99.90;;;;;;5033351;28;20075;-72
2023/01/26 07:57:56;;;;;;;28.55;14.85;;;4.60;99.90;;;;;;5033359;28;20095;-73
2023/01/26 08:00:22;;;;;;;35.03;16.25;;;4.60;99.90;;;;;;5032385;28;20029;-73
2023/01/26 08:02:51;;;;;;;32.08;15.25;;;4.60;99.90;;;;;;5032885;28;20053;-73
2023/01/26 08:05:16;;;;;;;32.47;16.23;;;4.60;99.90;;;;;;5032909;28;20110;-73
2023/01/26 08:07:42;;;;;;;41.65;17.23;;;4.60;99.90;;;;;;5033238;28;20088;-74
2023/01/26 08:10:09;;;;;;;26.27;14.27;;;4.60;99.90;;;;;;5033050;28;20091;-73
2023/01/26 08:12:36;;;;;;;24.80;13.52;;;4.60;99.90;;;;;;5031839;28;20362;-72
2023/01/26 08:15:02;;;;;;;32.25;15.82;;;4.60;99.90;;;;;;5032854;28;20033;-74
2023/01/26 08:17:28;;;;;;;29.63;14.88;;;4.60;99.90;;;;;;5031857;28;20045;-71
2023/01/26 08:19:54;;;;;;;34.47;16.83;;;4.70;99.90;;;;;;5032548;28;20026;-70
2023/01/26 08:22:20;;;;;;;36.08;17.98;;;4.70;99.90;;;;;;5031408;28;20396;-70
2023/01/26 08:24:45;;;;;;;33.92;16.25;;;4.70;99.90;;;;;;5031369;28;20025;-70
2023/01/26 08:27:11;;;;;;;32.72;16.55;;;4.70;99.90;;;;;;5032658;28;20034;-69
2023/01/26 08:29:37;;;;;;;35.10;15.93;;;4.70;99.90;;;;;;5031487;28;20039;-70
2023/01/26 08:32:02;;;;;;;35.72;18.08;;;4.70;99.90;;;;;;5032097;28;20373;-69
2023/01/26 08:34:28;;;;;;;33.92;17.45;;;4.70;99.90;;;;;;5032933;28;20029;-70
2023/01/26 08:36:54;;;;;;;38.20;18.70;;;4.70;99.90;;;;;;5032829;28;20390;-70
2023/01/26 08:39:19;;;;;;;38.15;18.27;;;4.70;99.90;;;;;;5032344;28;20025;-70
2023/01/26 08:41:46;;;;;;;48.10;18.95;;;4.70;99.90;;;;;;5015076;28;20033;-70
2023/01/26 08:44:11;;;;;;;40.45;19.27;;;4.70;99.90;;;;;;5031552;28;20021;-70
2023/01/26 08:46:37;;;;;;;37.50;17.25;;;4.70;99.90;;;;;;5031003;28;20397;-70
2023/01/26 08:49:03;;;;;;;39.92;18.02;;;4.80;99.90;;;;;;5033046;28;20079;-70
2023/01/26 08:51:28;;;;;;;40.65;18.23;;;4.80;99.90;;;;;;5032582;28;20111;-69
2023/01/26 08:53:57;;;;;;;34.88;17.02;;;4.80;99.90;;;;;;5032377;28;20030;-72
2023/01/26 08:56:23;;;;;;;32.58;15.85;;;4.80;99.90;;;;;;5031380;28;20045;-73
2023/01/26 08:58:48;;;;;;;42.83;19.45;;;4.90;99.90;;;;;;5030999;28;20054;-74
2023/01/26 09:01:15;;;;;;;39.90;17.90;;;4.90;99.90;;;;;;5031589;28;20026;-73
2023/01/26 09:03:42;;;;;;;30.20;14.73;;;5.00;99.90;;;;;;5032667;28;20034;-72
2023/01/26 09:06:09;;;;;;;42.75;20.20;;;4.90;99.90;;;;;;5031642;28;20128;-73
2023/01/26 09:08:35;;;;;;;45.15;20.85;;;5.00;99.90;;;;;;5032624;28;20069;-72
2023/01/26 09:11:01;;;;;;;43.95;20.08;;;5.00;99.90;;;;;;5031520;28;20048;-73
2023/01/26 09:13:26;;;;;;;50.38;19.20;;;4.90;99.90;;;;;;5031569;28;20377;-72
2023/01/26 09:15:52;;;;;;;43.10;19.48;;;5.00;99.90;;;;;;5031240;28;20308;-74
2023/01/26 09:18:18;;;;;;;53.55;21.15;;;4.90;99.90;;;;;;5032683;28;20025;-74
2023/01/26 09:20:44;;;;;;;47.38;20.77;;;4.90;99.90;;;;;;5031720;28;20026;-74
2023/01/26 09:23:11;;;;;;;52.33;22.90;;;4.90;99.90;;;;;;5033153;28;20044;-73
2023/01/26 09:25:38;;;;;;;53.40;21.63;;;5.00;99.90;;;;;;5033999;28;20044;-71
2023/01/26 09:28:04;;;;;;;54.92;21.35;;;4.90;99.90;;;;;;5034283;28;20140;-72
2023/01/26 09:30:30;;;;;;;54.55;22.13;;;4.90;99.90;;;;;;5031422;28;20120;-74
2023/01/26 09:33:00;;;;;;;56.05;22.15;;;4.80;99.90;;;;;;5015057;28;20127;-73
2023/01/26 09:35:29;;;;;;;62.78;24.67;;;4.70;99.90;;;;;;5031509;28;20122;-73
2023/01/26 09:37:55;;;;;;;49.05;21.75;;;4.70;99.90;;;;;;5032567;28;20025;-74
2023/01/26 09:40:27;;;;;;;62.83;25.42;;;4.60;99.90;;;;;;5033521;28;20355;-74
2023/01/26 09:43:04;;;;;;;55.72;22.02;;;4.50;99.90;;;;;;5036037;28;20092;-76
2023/01/26 09:45:42;;;;;;;68.22;24.05;;;4.50;99.90;;;;;;5034766;28;20099;-72
2023/01/26 09:48:23;;;;;;;54.55;21.33;;;4.50;99.90;;;;;;5034794;28;20041;-74
2023/01/26 09:51:02;;;;;;;57.20;22.38;;;4.50;99.90;;;;;;5034288;28;20026;-71
2023/01/26 09:53:54;;;;;;;52.30;21.25;;;4.60;99.90;;;;;;5034267;28;20389;-71
2023/01/26 09:56:24;;;;;;;64.40;22.58;;;4.50;99.90;;;;;;5036094;28;20034;-71
2023/01/26 09:59:11;;;;;;;54.92;21.63;;;4.50;99.90;;;;;;5035359;28;20045;-72
2023/01/26 10:01:48;;;;;;;47.28;19.52;;;4.40;99.90;;;;;;5035843;28;20029;-71
2023/01/26 10:04:14;;;;;;;51.88;19.85;;;4.50;99.90;;;;;;5035853;28;20071;-71
2023/01/26 10:06:40;;;;;;;43.35;18.60;;;4.50;99.90;;;;;;5035509;28;20038;-70
2023/01/26 10:09:19;;;;;;;56.35;20.08;;;4.60;99.90;;;;;;5017416;28;20030;-70
2023/01/26 10:11:55;;;;;;;39.55;18.38;;;4.60;99.90;;;;;;5035470;28;20045;-70
2023/01/26 10:14:41;;;;;;;52.10;19.80;;;4.70;99.90;;;;;;5035551;28;20025;-71
2023/01/26 10:17:14;;;;;;;36.65;17.10;;;4.80;99.90;;;;;;5035615;28;20434;-70
2023/01/26 10:19:44;;;;;;;52.92;20.02;;;4.90;99.90;;;;;;5035335;28;20025;-71
2023/01/26 10:22:50;;;;;;;46.25;17.83;;;5.00;99.90;;;;;;5034938;28;20037;-71
2023/01/26 10:25:18;;;;;;;43.38;18.95;;;4.90;99.90;;;;;;5035210;28;20038;-73
2023/01/26 10:27:45;;;;;;;46.35;19.17;;;5.00;99.90;;;;;;5033812;28;20056;-71
2023/01/26 10:30:15;;;;;;;41.28;17.45;;;4.90;99.90;;;;;;5034794;28;20044;-70
2023/01/26 10:32:42;;;;;;;70.05;18.45;;;5.00;99.90;;;;;;5033542;28;20041;-71
2023/01/26 10:35:22;;;;;;;53.00;19.00;;;5.10;99.90;;;;;;5035035;28;20038;-71
2023/01/26 10:37:51;;;;;;;37.45;15.10;;;5.00;99.90;;;;;;5035146;28;20029;-71
2023/01/26 10:40:17;;;;;;;42.67;15.98;;;5.00;99.90;;;;;;5017376;28;20454;-72
2023/01/26 10:42:57;;;;;;;31.67;14.35;;;5.20;99.90;;;;;;5034539;28;20104;-70
2023/01/26 10:45:32;;;;;;;33.63;14.50;;;5.30;99.90;;;;;;5034551;28;20557;-71
2023/01/26 10:48:20;;;;;;;25.83;13.52;;;5.40;99.90;;;;;;5034967;28;20113;-71
2023/01/26 10:50:46;;;;;;;27.55;13.23;;;5.40;99.90;;;;;;5034709;28;20036;-70
2023/01/26 10:53:29;;;;;;;26.50;13.50;;;5.40;99.90;;;;;;5033266;28;20041;-70
2023/01/26 10:55:59;;;;;;;24.13;12.10;;;5.40;99.90;;;;;;5034693;28;20064;-72
2023/01/26 10:58:41;;;;;;;33.30;13.20;;;5.40;99.90;;;;;;5033100;28;20492;-72
2023/01/26 11:01:11;;;;;;;25.10;12.35;;;5.40;99.90;;;;;;5034840;28;20097;-73
2023/01/26 11:03:38;;;;;;;21.05;11.05;;;5.40;99.90;;;;;;5016929;28;20435;-75
2023/01/26 11:06:16;;;;;;;27.23;11.45;;;5.50;99.90;;;;;;5033993;28;20394;-75
2023/01/26 11:08:49;;;;;;;22.45;11.05;;;5.70;99.90;;;;;;5033249;28;20113;-74
2023/01/26 11:11:28;;;;;;;26.57;11.60;;;5.80;99.90;;;;;;5035370;28;20164;-74
2023/01/26 11:14:16;;;;;;;26.25;11.73;;;5.80;99.90;;;;;;5037630;28;20261;-75
2023/01/26 11:16:58;;;;;;;24.83;11.15;;;6.00;99.90;;;;;;5033511;28;20049;-75
2023/01/26 11:19:55;;;;;;;25.23;10.95;;;6.10;99.90;;;;;;5033727;28;20026;-76
2023/01/26 11:22:47;;;;;;;19.05;10.10;;;6.20;99.90;;;;;;5033363;28;20068;-75
2023/01/26 11:25:22;;;;;;;24.15;10.18;;;6.40;99.90;;;;;;5027548;28;20124;-75
2023/01/26 11:28:00;;;;;;;24.83;10.80;;;6.40;99.90;;;;;;5033930;28;20490;-75
2023/01/26 11:31:03;;;;;;;21.38;9.55;;;6.50;99.90;;;;;;5032625;28;20037;-74
2023/01/26 11:33:48;;;;;;;26.00;10.45;;;6.60;99.90;;;;;;5033947;28;20347;-74
2023/01/26 11:36:33;;;;;;;22.65;9.30;;;6.70;99.90;;;;;;5033033;28;20512;-72
2023/01/26 11:39:16;;;;;;;24.40;10.10;;;6.90;99.90;;;;;;5033784;28;20021;-72
2023/01/26 11:42:06;;;;;;;24.10;9.07;;;7.10;99.90;;;;;;5032279;28;20117;-73
2023/01/26 11:44:50;;;;;;;24.05;8.95;;;7.20;99.90;;;;;;5032107;28;20026;-72
2023/01/26 11:47:41;;;;;;;19.23;8.43;;;7.40;99.90;;;;;;5032917;28;20037;-73
2023/01/26 11:50:19;;;;;;;22.15;8.68;;;7.40;99.90;;;;;;5032990;28;20026;-74
2023/01/26 11:53:00;;;;;;;17.48;7.78;;;7.40;99.90;;;;;;5032172;28;20025;-73
2023/01/26 11:55:55;;;;;;;20.23;8.60;;;7.60;99.90;;;;;;5033931;28;20045;-72
2023/01/26 11:58:39;;;;;;;20.75;7.63;;;7.80;99.90;;;;;;5033164;28;20053;-72
2023/01/26 12:01:29;;;;;;;22.45;8.15;;;7.90;99.90;;;;;;5033798;28;20068;-72
2023/01/26 12:03:55;;;;;;;22.77;8.52;;;8.00;99.90;;;;;;5032193;28;20021;-73
2023/01/26 12:06:31;;;;;;;17.08;6.82;;;8.10;99.90;;;;;;5031831;28;20048;-73
2023/01/26 12:09:02;;;;;;;24.45;8.60;;;8.20;99.90;;;;;;5033004;28;20490;-73
2023/01/26 12:11:38;;;;;;;21.20;7.20;;;8.40;99.90;;;;;;5033932;28;20034;-73
2023/01/26 12:14:13;;;;;;;25.73;8.02;;;8.60;99.90;;;;;;5033284;28;20029;-72
2023/01/26 12:16:59;;;;;;;23.00;8.02;;;8.70;99.90;;;;;;5031925;28;20032;-73
2023/01/26 12:19:40;;;;;;;23.33;7.00;;;8.80;99.90;;;;;;5032657;28;20041;-71
2023/01/26 12:22:18;;;;;;;27.05;8.88;;;8.90;99.90;;;;;;5033093;28;20032;-74
2023/01/26 12:24:56;;;;;;;21.52;6.97;;;9.00;99.90;;;;;;5033153;28;20033;-72
2023/01/26 12:27:33;;;;;;;25.75;7.10;;;9.00;99.90;;;;;;5032696;28;20029;-74
2023/01/26 12:30:26;;;;;;;21.40;7.45;;;9.00;99.90;;;;;;5033316;28;20048;-73
2023/01/26 12:32:52;;;;;;;23.95;6.57;;;9.10;99.90;;;;;;5032659;28;20044;-72
2023/01/26 12:35:43;;;;;;;21.73;5.90;;;9.10;99.90;;;;;;5032928;28;20037;-73
2023/01/26 12:38:38;;;;;;;20.88;5.03;;;9.20;99.90;;;;;;5031194;28;20042;-73
2023/01/26 12:41:33;;;;;;;19.08;4.55;;;9.40;99.90;;;;;;5031295;28;20119;-73
2023/01/26 12:44:24;;;;;;;26.15;4.93;;;9.60;99.90;;;;;;5031318;28;20119;-73
2023/01/26 12:47:13;;;;;;;27.55;4.72;;;9.60;99.90;;;;;;5032790;28;20030;-73
2023/01/26 12:49:45;;;;;;;22.98;4.85;;;9.50;99.90;;;;;;5032197;28;20041;-75
2023/01/26 12:53:01;;;;;;;19.63;3.78;;;9.50;99.90;;;;;;5032127;28;20034;-74
2023/01/26 12:55:42;;;;;;;19.92;3.33;;;9.60;99.90;;;;;;5032283;28;20029;-72
2023/01/26 12:58:21;;;;;;;25.27;3.20;;;9.60;99.90;;;;;;5033737;28;20398;-73
2023/01/26 13:01:14;;;;;;;25.30;3.75;;;9.80;99.90;;;;;;5032785;28;20467;-73
2023/01/26 13:03:44;;;;;;;16.73;3.50;;;9.90;99.90;;;;;;5030117;28;20052;-73
2023/01/26 13:06:10;;;;;;;24.83;3.33;;;9.90;99.90;;;;;;5032373;28;20033;-73
2023/01/26 13:08:35;;;;;;;16.27;2.60;;;9.70;99.90;;;;;;5032829;28;20030;-73
2023/01/26 13:11:06;;;;;;;18.80;2.63;;;9.70;99.90;;;;;;5031680;28;20034;-72
2023/01/26 13:13:32;;;;;;;24.02;3.00;;;9.80;99.90;;;;;;5032642;28;20033;-73
2023/01/26 13:16:16;;;;;;;20.05;2.20;;;9.80;99.90;;;;;;5036170;28;20063;-73
2023/01/26 13:18:52;;;;;;;17.05;2.67;;;9.80;99.90;;;;;;5034972;28;20472;-72
2023/01/26 13:21:28;;;;;;;21.60;2.80;;;9.70;99.90;;;;;;5036139;28;20076;-73
2023/01/26 13:23:53;;;;;;;18.40;2.35;;;9.60;99.90;;;;;;5036891;28;20057;-72
2023/01/26 13:26:22;;;;;;;16.92;2.92;;;9.50;99.90;;;;;;5035050;28;20049;-72
2023/01/26 13:28:49;;;;;;;17.55;2.53;;;9.50;99.90;;;;;;5036080;28;20072;-73
2023/01/26 13:31:30;;;;;;;20.52;2.35;;;9.40;99.90;;;;;;5035503;28;20034;-73
2023/01/26 13:34:00;;;;;;;20.02;2.13;;;9.40;99.90;;;;;;5035633;28;20022;-76
2023/01/26 13:36:31;;;;;;;22.63;2.70;;;9.30;99.90;;;;;;5036675;28;20029;-75
2023/01/26 13:39:09;;;;;;;18.95;2.38;;;9.30;99.90;;;;;;5036572;28;20025;-73
2023/01/26 13:41:46;;;;;;;17.88;2.25;;;9.20;99.90;;;;;;5034482;28;20025;-75